Time,TemperatureF,DewpointF,PressureIn,WindDirection,WindDirectionDegrees,WindSpeedMPH,WindSpeedGustMPH,Humidity,HourlyPrecipIn,Conditions,Clouds,dailyrainin,SoftwareType,DateUTC
2013-02-15 00:01:00,42.3,33.9,29.98,WSW,251,2.5,2.5,72,0.00,,,0.00,WUHU21623XXSP,2013-02-15 05:01:00,
2013-02-15 00:03:00,42.1,33.7,29.98,SSW,206,2.2,2.5,72,0.00,,,0.00,WUHU21623XXSP,2013-02-15 05:03:00,
2013-02-15 00:05:00,42.1,33.7,29.98,SSW,206,2.2,2.5,72,0.00,,,0.00,WUHU21623XXSP,2013-02-15 05:05:00,
2013-02-15 00:12:00,41.9,33.7,29.99,SW,228,2.6,2.9,72,0.00,,,0.00,WUHU21623XXSP,2013-02-15 05:12:00,
2013-02-15 00:18:00,41.7,33.4,29.99,SSW,206,2.9,2.9,72,0.00,,,0.00,WUHU21623XXSP,2013-02-15 05:18:00,
2013-02-15 00:23:00,41.7,33.4,29.99,WSW,251,3.1,3.1,72,0.00,,,0.00,WUHU21623XXSP,2013-02-15 05:23:00,
2013-02-15 00:29:00,41.7,33.4,29.99,SSW,206,3.8,3.8,72,0.00,,,0.00,WUHU21623XXSP,2013-02-15 05:29:00,
2013-02-15 00:35:00,41.7,33.4,29.99,SW,228,1.1,3.8,72,0.00,,,0.00,WUHU21623XXSP,2013-02-15 05:35:00,
2013-02-15 00:42:00,41.7,33.4,29.99,SSW,206,0.0,1.6,72,0.00,,,0.00,WUHU21623XXSP,2013-02-15 05:42:00,
2013-02-15 00:48:00,41.7,33.4,29.99,South,183,1.1,1.1,72,0.00,,,0.00,WUHU21623XXSP,2013-02-15 05:48:00,
2013-02-15 00:55:00,41.7,33.4,29.99,SW,228,1.3,1.3,72,0.00,,,0.00,WUHU21623XXSP,2013-02-15 05:55:00,
2013-02-15 01:01:00,41.7,33.4,29.99,SSW,206,0.0,1.3,72,0.00,,,0.00,WUHU21623XXSP,2013-02-15 06:01:00,
2013-02-15 01:08:00,41.7,33.4,29.99,SW,228,0.0,0.7,72,0.00,,,0.00,WUHU21623XXSP,2013-02-15 06:08:00,
2013-02-15 01:14:00,41.7,33.0,29.99,SW,228,0.0,0.7,71,0.00,,,0.00,WUHU21623XXSP,2013-02-15 06:14:00,
2013-02-15 01:20:00,41.7,33.0,29.98,SW,228,0.0,0.0,71,0.00,,,0.00,WUHU21623XXSP,2013-02-15 06:20:00,
2013-02-15 01:27:00,41.5,32.9,29.99,South,183,0.8,0.9,71,0.00,,,0.00,WUHU21623XXSP,2013-02-15 06:27:00,
2013-02-15 01:33:00,41.2,32.5,29.99,SW,228,1.6,2.0,71,0.00,,,0.00,WUHU21623XXSP,2013-02-15 06:33:00,
2013-02-15 01:40:00,41.0,32.3,29.99,SSW,206,2.2,2.7,71,0.00,,,0.00,WUHU21623XXSP,2013-02-15 06:40:00,
2013-02-15 01:46:00,40.5,32.0,29.99,SSW,206,0.9,2.7,71,0.00,,,0.00,WUHU21623XXSP,2013-02-15 06:46:00,
2013-02-15 01:53:00,40.6,32.3,29.99,SW,228,0.0,2.0,72,0.00,,,0.00,WUHU21623XXSP,2013-02-15 06:53:00,
2013-02-15 01:59:00,40.6,32.3,29.99,South,183,0.7,1.6,72,0.00,,,0.00,WUHU21623XXSP,2013-02-15 06:59:00,
2013-02-15 02:05:00,40.8,32.5,29.98,South,183,0.7,1.6,72,0.00,,,0.00,WUHU21623XXSP,2013-02-15 07:05:00,
2013-02-15 02:12:00,40.6,32.3,29.99,SSE,161,1.1,1.1,71,0.00,,,0.00,WUHU21623XXSP,2013-02-15 07:12:00,
2013-02-15 02:18:00,40.6,32.0,29.98,South,183,1.6,1.6,71,0.00,,,0.00,WUHU21623XXSP,2013-02-15 07:18:00,
2013-02-15 02:25:00,40.6,32.0,29.98,SSW,206,0.0,1.6,71,0.00,,,0.00,WUHU21623XXSP,2013-02-15 07:25:00,
2013-02-15 02:31:00,40.6,32.0,29.98,SSW,206,0.0,1.3,71,0.00,,,0.00,WUHU21623XXSP,2013-02-15 07:31:00,
2013-02-15 02:38:00,40.3,31.6,29.97,SE,138,0.0,0.7,71,0.00,,,0.00,WUHU21623XXSP,2013-02-15 07:38:00,
2013-02-15 02:44:00,40.3,31.6,29.98,SE,138,0.0,0.7,71,0.00,,,0.00,WUHU21623XXSP,2013-02-15 07:44:00,
2013-02-15 02:50:00,40.1,31.4,29.97,SE,138,0.0,0.0,71,0.00,,,0.00,WUHU21623XXSP,2013-02-15 07:50:00,
2013-02-15 02:57:00,40.1,31.8,29.97,SE,138,0.0,0.0,72,0.00,,,0.00,WUHU21623XXSP,2013-02-15 07:57:00,
2013-02-15 03:04:00,40.1,31.8,29.97,SSE,161,1.1,1.1,72,0.00,,,0.00,WUHU21623XXSP,2013-02-15 08:04:00,
2013-02-15 03:10:00,40.1,31.8,29.98,SSE,161,0.9,1.1,72,0.00,,,0.00,WUHU21623XXSP,2013-02-15 08:10:00,
2013-02-15 03:16:00,39.9,31.6,29.97,SSE,161,1.8,1.8,72,0.00,,,0.00,WUHU21623XXSP,2013-02-15 08:16:00,
2013-02-15 03:22:00,39.6,31.4,29.97,South,183,2.2,2.2,72,0.00,,,0.00,WUHU21623XXSP,2013-02-15 08:22:00,
2013-02-15 03:29:00,39.4,31.0,29.97,South,183,1.3,2.2,72,0.00,,,0.00,WUHU21623XXSP,2013-02-15 08:29:00,
2013-02-15 03:35:00,39.4,31.4,29.98,SW,228,2.2,2.2,73,0.00,,,0.00,WUHU21623XXSP,2013-02-15 08:35:00,
2013-02-15 03:42:00,39.7,31.7,29.98,SW,228,2.2,2.2,73,0.00,,,0.00,WUHU21623XXSP,2013-02-15 08:42:00,
2013-02-15 03:48:00,39.9,31.9,29.98,SW,228,1.6,2.2,73,0.00,,,0.00,WUHU21623XXSP,2013-02-15 08:48:00,
2013-02-15 03:55:00,40.1,32.1,29.98,SSW,206,1.8,2.5,73,0.00,,,0.00,WUHU21623XXSP,2013-02-15 08:55:00,
2013-02-15 04:01:00,40.1,32.1,29.98,SSW,206,2.2,2.5,73,0.00,,,0.00,WUHU21623XXSP,2013-02-15 09:01:00,
2013-02-15 04:08:00,39.9,31.9,29.98,South,183,2.0,2.7,73,0.00,,,0.00,WUHU21623XXSP,2013-02-15 09:08:00,
2013-02-15 04:14:00,39.9,31.9,29.98,South,183,3.6,3.6,73,0.00,,,0.00,WUHU21623XXSP,2013-02-15 09:14:00,
2013-02-15 04:21:00,39.7,31.7,29.99,SSW,206,3.4,3.6,73,0.00,,,0.00,WUHU21623XXSP,2013-02-15 09:21:00,
2013-02-15 04:27:00,39.9,31.9,29.98,SSW,206,2.9,3.4,73,0.00,,,0.00,WUHU21623XXSP,2013-02-15 09:27:00,
2013-02-15 04:33:00,39.6,31.6,29.98,SSW,206,3.7,4.3,73,0.00,,,0.00,WUHU21623XXSP,2013-02-15 09:33:00,
2013-02-15 04:40:00,39.4,31.6,29.97,South,183,5.6,5.6,73,0.00,,,0.00,WUHU21623XXSP,2013-02-15 09:40:00,
2013-02-15 04:46:00,39.0,31.4,29.98,SSW,206,3.8,5.6,74,0.00,,,0.00,WUHU21623XXSP,2013-02-15 09:46:00,
2013-02-15 04:51:00,39.0,31.4,29.98,SW,228,3.4,4.0,74,0.00,,,0.00,WUHU21623XXSP,2013-02-15 09:51:00,
2013-02-15 04:57:00,39.0,31.4,29.99,SW,228,2.9,8.3,74,0.00,,,0.00,WUHU21623XXSP,2013-02-15 09:57:00,
2013-02-15 05:03:00,39.0,31.4,29.99,South,183,2.5,3.1,74,0.00,,,0.00,WUHU21623XXSP,2013-02-15 10:03:00,
2013-02-15 05:10:00,39.0,31.4,29.98,SSW,206,2.0,2.7,74,0.00,,,0.00,WUHU21623XXSP,2013-02-15 10:10:00,
2013-02-15 05:16:00,39.0,31.4,29.99,SSE,161,0.9,2.0,74,0.00,,,0.00,WUHU21623XXSP,2013-02-15 10:16:00,
2013-02-15 05:22:00,39.0,31.4,29.98,South,183,1.3,2.5,74,0.00,,,0.00,WUHU21623XXSP,2013-02-15 10:22:00,
2013-02-15 05:29:00,39.0,31.4,29.98,South,183,1.3,2.5,74,0.00,,,0.00,WUHU21623XXSP,2013-02-15 10:29:00,
2013-02-15 05:35:00,39.4,31.7,29.98,South,183,0.0,1.3,74,0.00,,,0.00,WUHU21623XXSP,2013-02-15 10:35:00,
2013-02-15 05:42:00,39.6,31.9,29.98,South,183,1.3,1.3,74,0.00,,,0.00,WUHU21623XXSP,2013-02-15 10:42:00,
2013-02-15 05:49:00,39.6,31.9,29.98,SSE,161,0.9,1.3,74,0.00,,,0.00,WUHU21623XXSP,2013-02-15 10:49:00,
2013-02-15 05:55:00,39.6,31.9,29.97,SSE,161,1.8,1.8,74,0.00,,,0.00,WUHU21623XXSP,2013-02-15 10:55:00,
2013-02-15 06:01:00,39.4,31.7,29.97,SSE,161,0.9,1.8,74,0.00,,,0.00,WUHU21623XXSP,2013-02-15 11:01:00,
2013-02-15 06:07:00,39.6,31.7,29.97,SSE,161,1.1,1.1,74,0.00,,,0.00,WUHU21623XXSP,2013-02-15 11:07:00,
2013-02-15 06:14:00,39.4,31.4,29.97,SSE,161,1.8,1.8,73,0.00,,,0.00,WUHU21623XXSP,2013-02-15 11:14:00,
2013-02-15 06:20:00,39.4,31.4,29.97,SSE,161,1.3,2.0,73,0.00,,,0.00,WUHU21623XXSP,2013-02-15 11:20:00,
2013-02-15 06:27:00,39.4,31.4,29.97,South,183,1.3,1.3,73,0.00,,,0.00,WUHU21623XXSP,2013-02-15 11:27:00,
2013-02-15 06:34:00,39.4,31.4,29.97,South,183,1.3,1.3,73,0.00,,,0.00,WUHU21623XXSP,2013-02-15 11:34:00,
2013-02-15 06:40:00,39.4,31.4,29.97,South,183,1.3,1.3,73,0.00,,,0.00,WUHU21623XXSP,2013-02-15 11:40:00,
2013-02-15 06:46:00,39.4,31.4,29.97,South,183,0.9,1.3,73,0.00,,,0.00,WUHU21623XXSP,2013-02-15 11:46:00,
2013-02-15 06:53:00,39.4,31.4,29.97,SSE,161,1.3,1.3,73,0.00,,,0.00,WUHU21623XXSP,2013-02-15 11:53:00,
2013-02-15 06:59:00,39.4,31.4,29.97,SSE,161,1.3,1.8,73,0.00,,,0.00,WUHU21623XXSP,2013-02-15 11:59:00,
2013-02-15 07:06:00,39.0,31.0,29.97,South,183,3.6,3.6,73,0.00,,,0.00,WUHU21623XXSP,2013-02-15 12:06:00,
2013-02-15 07:12:00,38.8,30.9,29.98,SSW,206,2.9,3.6,73,0.00,,,0.00,WUHU21623XXSP,2013-02-15 12:12:00,
2013-02-15 07:19:00,39.0,31.4,29.98,SSW,206,3.6,3.6,74,0.00,,,0.00,WUHU21623XXSP,2013-02-15 12:19:00,
2013-02-15 07:25:00,39.4,31.7,29.99,SSW,206,2.5,4.9,74,0.00,,,0.00,WUHU21623XXSP,2013-02-15 12:25:00,
2013-02-15 07:31:00,39.4,31.7,29.99,SSW,206,1.6,4.9,74,0.00,,,0.00,WUHU21623XXSP,2013-02-15 12:31:00,
2013-02-15 07:38:00,39.4,31.7,29.99,South,183,3.1,3.1,74,0.00,,,0.00,WUHU21623XXSP,2013-02-15 12:38:00,
2013-02-15 07:44:00,39.7,32.1,29.99,SSW,206,2.2,3.1,74,0.00,,,0.00,WUHU21623XXSP,2013-02-15 12:44:00,
2013-02-15 07:51:00,40.1,32.8,29.99,SW,228,4.0,4.3,75,0.00,,,0.00,WUHU21623XXSP,2013-02-15 12:51:00,
2013-02-15 07:57:00,40.3,32.9,29.99,SW,228,4.5,5.8,75,0.00,,,0.00,WUHU21623XXSP,2013-02-15 12:57:00,
2013-02-15 08:04:00,40.6,33.3,30.00,WSW,251,1.1,5.8,75,0.00,,,0.00,WUHU21623XXSP,2013-02-15 13:04:00,
2013-02-15 08:10:00,41.0,33.4,29.99,WSW,251,2.7,2.9,75,0.00,,,0.00,WUHU21623XXSP,2013-02-15 13:10:00,
2013-02-15 08:16:00,41.2,33.5,30.00,SSW,206,6.0,6.0,74,0.00,,,0.00,WUHU21623XXSP,2013-02-15 13:16:00,
2013-02-15 08:23:00,41.4,33.7,30.00,SW,221,4.3,6.0,74,0.00,,,0.00,WUHU21623XXSP,2013-02-15 13:23:00,
2013-02-15 08:29:00,41.2,33.5,30.01,SW,228,6.7,6.7,74,0.00,,,0.00,WUHU21623XXSP,2013-02-15 13:29:00,
2013-02-15 08:36:00,41.4,33.7,30.00,WSW,251,7.6,7.6,74,0.00,,,0.00,WUHU21623XXSP,2013-02-15 13:36:00,
2013-02-15 08:42:00,41.5,33.8,30.00,SW,233,6.4,9.8,74,0.00,,,0.00,WUHU21623XXSP,2013-02-15 13:42:00,
2013-02-15 08:49:00,41.5,33.8,30.00,WSW,251,2.5,9.8,74,0.00,,,0.00,WUHU21623XXSP,2013-02-15 13:49:00,
2013-02-15 08:55:00,41.7,34.0,30.00,WSW,251,7.4,7.4,74,0.00,,,0.00,WUHU21623XXSP,2013-02-15 13:55:00,
2013-02-15 09:01:00,41.7,34.0,30.00,West,273,1.6,7.4,74,0.00,,,0.00,WUHU21623XXSP,2013-02-15 14:01:00,
2013-02-15 09:08:00,41.7,34.0,30.00,WSW,251,3.8,4.7,74,0.00,,,0.00,WUHU21623XXSP,2013-02-15 14:08:00,
2013-02-15 09:15:00,41.9,34.2,30.00,SW,228,4.7,4.7,74,0.00,,,0.00,WUHU21623XXSP,2013-02-15 14:15:00,
2013-02-15 09:21:00,42.1,34.4,30.00,SW,235,4.3,6.0,74,0.00,,,0.00,WUHU21623XXSP,2013-02-15 14:21:00,
2013-02-15 09:27:00,42.4,34.6,30.00,SSW,206,4.5,6.0,74,0.00,,,0.00,WUHU21623XXSP,2013-02-15 14:27:00,
2013-02-15 09:34:00,42.6,34.7,30.00,SW,214,4.1,10.5,74,0.00,,,0.00,WUHU21623XXSP,2013-02-15 14:34:00,
2013-02-15 09:40:00,43.0,34.6,30.00,WSW,251,3.8,5.1,73,0.00,,,0.00,WUHU21623XXSP,2013-02-15 14:40:00,
2013-02-15 09:47:00,43.2,35.1,30.00,SSW,206,3.6,3.8,73,0.00,,,0.00,WUHU21623XXSP,2013-02-15 14:47:00,
2013-02-15 09:53:00,43.9,35.4,30.00,South,183,3.1,10.5,72,0.00,,,0.00,WUHU21623XXSP,2013-02-15 14:53:00,
2013-02-15 10:00:00,44.8,36.3,29.99,South,183,3.6,5.6,72,0.00,,,0.00,WUHU21623XXSP,2013-02-15 15:00:00,
2013-02-15 10:06:00,45.3,36.5,30.00,WSW,251,5.4,13.4,71,0.00,,,0.00,WUHU21623XXSP,2013-02-15 15:06:00,
2013-02-15 10:12:00,45.7,36.3,30.00,South,183,3.6,13.4,70,0.00,,,0.00,WUHU21623XXSP,2013-02-15 15:12:00,
2013-02-15 10:19:00,46.0,36.5,30.00,SW,228,5.6,8.9,70,0.00,,,0.00,WUHU21623XXSP,2013-02-15 15:19:00,
2013-02-15 10:25:00,46.2,36.6,30.00,SSW,206,10.7,10.7,69,0.00,,,0.00,WUHU21623XXSP,2013-02-15 15:25:00,
2013-02-15 10:32:00,46.6,37.0,30.00,South,183,6.9,10.7,69,0.00,,,0.00,WUHU21623XXSP,2013-02-15 15:32:00,
2013-02-15 10:38:00,46.9,37.1,30.00,SSW,206,6.7,9.8,69,0.00,,,0.00,WUHU21623XXSP,2013-02-15 15:38:00,
2013-02-15 10:44:00,47.3,37.5,30.00,SW,228,5.8,6.7,68,0.00,,,0.00,WUHU21623XXSP,2013-02-15 15:44:00,
2013-02-15 10:51:00,47.5,37.4,29.99,South,183,4.7,5.8,68,0.00,,,0.00,WUHU21623XXSP,2013-02-15 15:51:00,
2013-02-15 10:57:00,47.8,37.4,30.00,WSW,251,7.4,7.8,67,0.00,,,0.00,WUHU21623XXSP,2013-02-15 15:57:00,
2013-02-15 11:04:00,48.0,37.4,29.99,SW,228,6.5,7.4,67,0.00,,,0.00,WUHU21623XXSP,2013-02-15 16:04:00,
2013-02-15 11:10:00,48.4,37.9,29.99,SSW,206,9.6,9.6,67,0.00,,,0.00,WUHU21623XXSP,2013-02-15 16:10:00,
2013-02-15 11:17:00,48.7,38.2,30.00,South,183,4.0,9.6,67,0.00,,,0.00,WUHU21623XXSP,2013-02-15 16:17:00,
2013-02-15 11:24:00,48.9,38.0,29.99,North,3,1.1,5.1,66,0.00,,,0.00,WUHU21623XXSP,2013-02-15 16:24:00,
2013-02-15 11:30:00,48.9,38.2,29.99,WSW,251,4.9,5.1,66,0.00,,,0.00,WUHU21623XXSP,2013-02-15 16:30:00,
2013-02-15 11:36:00,49.3,38.8,29.99,SSE,161,9.8,9.8,67,0.00,,,0.00,WUHU21623XXSP,2013-02-15 16:36:00,
2013-02-15 11:43:00,49.6,38.3,29.99,SSE,161,2.0,9.8,65,0.00,,,0.00,WUHU21623XXSP,2013-02-15 16:43:00,
2013-02-15 11:49:00,49.8,38.5,29.99,SW,228,6.0,9.2,65,0.00,,,0.00,WUHU21623XXSP,2013-02-15 16:49:00,
2013-02-15 11:55:00,50.0,38.7,29.98,WSW,251,1.1,6.0,65,0.00,,,0.00,WUHU21623XXSP,2013-02-15 16:55:00,
2013-02-15 12:02:00,50.4,39.0,29.98,SSE,161,9.6,9.6,65,0.00,,,0.00,WUHU21623XXSP,2013-02-15 17:02:00,
2013-02-15 12:08:00,50.7,38.5,29.97,SSW,206,1.8,9.6,63,0.00,,,0.00,WUHU21623XXSP,2013-02-15 17:08:00,
2013-02-15 12:15:00,51.4,39.2,29.97,SSE,161,1.3,5.4,63,0.00,,,0.00,WUHU21623XXSP,2013-02-15 17:15:00,
2013-02-15 12:22:00,52.2,39.5,29.97,SSW,206,1.1,5.4,62,0.00,,,0.00,WUHU21623XXSP,2013-02-15 17:22:00,
2013-02-15 12:28:00,52.5,39.8,29.96,South,183,4.3,5.8,62,0.00,,,0.00,WUHU21623XXSP,2013-02-15 17:28:00,
2013-02-15 12:34:00,53.1,40.0,29.96,SE,138,4.5,7.8,61,0.00,,,0.00,WUHU21623XXSP,2013-02-15 17:34:00,
2013-02-15 12:40:00,53.8,40.3,29.96,SSE,161,4.3,4.7,61,0.00,,,0.00,WUHU21623XXSP,2013-02-15 17:40:00,
2013-02-15 12:47:00,54.1,40.6,29.96,SSE,161,1.3,6.3,60,0.00,,,0.00,WUHU21623XXSP,2013-02-15 17:47:00,
2013-02-15 12:54:00,54.7,41.1,29.95,SSE,161,8.3,8.3,60,0.00,,,0.00,WUHU21623XXSP,2013-02-15 17:54:00,
2013-02-15 13:00:00,55.0,40.5,29.95,SSE,161,6.5,8.3,58,0.00,,,0.00,WUHU21623XXSP,2013-02-15 18:00:00,
2013-02-15 13:06:00,54.9,39.8,29.95,South,183,7.8,7.8,57,0.00,,,0.00,WUHU21623XXSP,2013-02-15 18:06:00,
2013-02-15 13:13:00,54.1,39.6,29.95,South,183,13.0,13.0,58,0.00,,,0.00,WUHU21623XXSP,2013-02-15 18:13:00,
2013-02-15 13:19:00,53.8,39.3,29.94,South,183,7.4,13.0,58,0.00,,,0.00,WUHU21623XXSP,2013-02-15 18:19:00,
2013-02-15 13:26:00,53.4,39.0,29.94,SSE,161,5.1,7.4,58,0.00,,,0.00,WUHU21623XXSP,2013-02-15 18:26:00,
2013-02-15 13:32:00,53.2,38.8,29.94,SSE,161,4.3,6.9,58,0.00,,,0.00,WUHU21623XXSP,2013-02-15 18:32:00,
2013-02-15 13:39:00,52.9,38.4,29.94,SW,228,6.9,10.3,58,0.00,,,0.00,WUHU21623XXSP,2013-02-15 18:39:00,
2013-02-15 14:42:00,53.4,39.9,29.92,South,183,6.7,6.7,60,0.00,,,0.00,WUHU21623XXSP,2013-02-15 19:42:00,
2013-02-15 14:47:00,53.1,39.7,29.92,SSW,206,8.9,8.9,60,0.00,,,0.00,WUHU21623XXSP,2013-02-15 19:47:00,
2013-02-15 14:53:00,52.9,39.8,29.92,SSE,161,6.9,8.9,61,0.00,,,0.00,WUHU21623XXSP,2013-02-15 19:53:00,
2013-02-15 15:00:00,52.7,39.8,29.91,SSE,161,2.9,6.9,62,0.00,,,0.00,WUHU21623XXSP,2013-02-15 20:00:00,
2013-02-15 15:06:00,52.5,39.8,29.91,South,183,5.1,5.8,62,0.00,,,0.00,WUHU21623XXSP,2013-02-15 20:06:00,
2013-02-15 15:13:00,52.5,39.8,29.92,SSW,206,5.8,11.9,62,0.00,,,0.00,WUHU21623XXSP,2013-02-15 20:13:00,
2013-02-15 15:19:00,52.5,40.2,29.91,SSE,161,7.4,11.9,62,0.00,,,0.00,WUHU21623XXSP,2013-02-15 20:19:00,
2013-02-15 15:26:00,52.0,39.3,29.91,South,183,6.0,7.4,62,0.00,,,0.00,WUHU21623XXSP,2013-02-15 20:26:00,
2013-02-15 15:32:00,51.6,38.9,29.91,ESE,116,2.0,7.4,62,0.00,,,0.00,WUHU21623XXSP,2013-02-15 20:32:00,
2013-02-15 15:38:00,51.6,39.4,29.91,SSE,161,7.2,7.2,63,0.00,,,0.00,WUHU21623XXSP,2013-02-15 20:38:00,
2013-02-15 15:45:00,51.6,39.4,29.91,SE,138,3.4,7.2,63,0.00,,,0.00,WUHU21623XXSP,2013-02-15 20:45:00,
2013-02-15 15:51:00,51.4,39.2,29.91,South,183,5.8,5.8,63,0.00,,,0.00,WUHU21623XXSP,2013-02-15 20:51:00,
2013-02-15 15:58:00,51.4,39.2,29.92,SE,138,2.2,5.8,63,0.00,,,0.00,WUHU21623XXSP,2013-02-15 20:58:00,
2013-02-15 16:05:00,51.3,39.0,29.91,SSE,161,7.6,7.6,63,0.00,,,0.00,WUHU21623XXSP,2013-02-15 21:05:00,
2013-02-15 16:11:00,50.9,38.7,29.92,South,183,2.5,7.6,63,0.00,,,0.00,WUHU21623XXSP,2013-02-15 21:11:00,
2013-02-15 16:17:00,50.7,38.5,29.91,South,183,7.2,7.2,63,0.00,,,0.00,WUHU21623XXSP,2013-02-15 21:17:00,
2013-02-15 16:24:00,50.5,38.8,29.92,SSW,206,7.4,7.4,63,0.00,,,0.00,WUHU21623XXSP,2013-02-15 21:24:00,
2013-02-15 16:30:00,50.4,38.6,29.92,South,183,5.4,7.4,64,0.00,,,0.00,WUHU21623XXSP,2013-02-15 21:30:00,
2013-02-15 16:37:00,50.2,38.6,29.92,SSW,206,5.6,5.6,64,0.00,,,0.00,WUHU21623XXSP,2013-02-15 21:37:00,
2013-02-15 16:43:00,49.8,38.5,29.92,SSW,206,2.2,7.4,65,0.00,,,0.00,WUHU21623XXSP,2013-02-15 21:43:00,
2013-02-15 16:49:00,49.5,38.3,29.92,SSE,161,4.5,5.6,65,0.00,,,0.00,WUHU21623XXSP,2013-02-15 21:49:00,
2013-02-15 16:56:00,49.3,38.0,29.92,SSW,206,0.9,4.5,65,0.00,,,0.00,WUHU21623XXSP,2013-02-15 21:56:00,
2013-02-15 17:02:00,48.9,37.6,29.92,South,183,6.9,6.9,65,0.00,,,0.00,WUHU21623XXSP,2013-02-15 22:02:00,
2013-02-15 17:09:00,48.7,37.8,29.92,SSE,161,2.7,6.9,66,0.00,,,0.00,WUHU21623XXSP,2013-02-15 22:09:00,
2013-02-15 17:15:00,48.6,37.7,29.92,South,183,3.6,4.7,66,0.00,,,0.00,WUHU21623XXSP,2013-02-15 22:15:00,
2013-02-15 17:22:00,48.4,37.9,29.92,SSW,206,0.0,3.6,67,0.00,,,0.00,WUHU21623XXSP,2013-02-15 22:22:00,
2013-02-15 17:28:00,48.0,37.5,29.92,SSW,206,2.0,2.0,67,0.00,,,0.00,WUHU21623XXSP,2013-02-15 22:28:00,
2013-02-15 17:35:00,47.8,37.5,29.91,SE,138,2.3,2.5,67,0.00,,,0.00,WUHU21623XXSP,2013-02-15 22:35:00,
2013-02-15 17:41:00,47.5,37.0,29.92,South,183,0.0,2.5,67,0.00,,,0.00,WUHU21623XXSP,2013-02-15 22:41:00,
2013-02-15 17:48:00,47.5,37.0,29.91,SSE,161,1.3,1.3,67,0.00,,,0.00,WUHU21623XXSP,2013-02-15 22:48:00,
2013-02-15 17:54:00,47.5,37.4,29.91,SSE,161,1.3,2.0,68,0.00,,,0.00,WUHU21623XXSP,2013-02-15 22:54:00,
2013-02-15 18:01:00,47.5,37.4,29.91,South,183,0.7,2.5,68,0.00,,,0.00,WUHU21623XXSP,2013-02-15 23:01:00,
2013-02-15 18:07:00,47.3,37.3,29.91,South,183,2.0,2.0,68,0.00,,,0.00,WUHU21623XXSP,2013-02-15 23:07:00,
2013-02-15 18:13:00,47.1,37.1,29.91,South,183,1.6,3.4,68,0.00,,,0.00,WUHU21623XXSP,2013-02-15 23:13:00,
2013-02-15 18:20:00,47.1,37.1,29.91,SE,138,0.0,3.4,68,0.00,,,0.00,WUHU21623XXSP,2013-02-15 23:20:00,
2013-02-15 18:26:00,46.9,37.1,29.91,ESE,116,1.1,1.8,68,0.00,,,0.00,WUHU21623XXSP,2013-02-15 23:26:00,
2013-02-15 18:32:00,46.8,37.3,29.91,SSE,161,2.2,3.1,69,0.00,,,0.00,WUHU21623XXSP,2013-02-15 23:32:00,
2013-02-15 18:39:00,46.6,37.0,29.91,SSE,161,2.2,2.2,69,0.00,,,0.00,WUHU21623XXSP,2013-02-15 23:39:00,
2013-02-15 18:45:00,46.4,36.8,29.90,South,183,2.9,2.9,69,0.00,,,0.00,WUHU21623XXSP,2013-02-15 23:45:00,
2013-02-15 18:52:00,46.2,36.6,29.90,SSE,161,2.5,2.9,69,0.00,,,0.00,WUHU21623XXSP,2013-02-15 23:52:00,
2013-02-15 18:58:00,46.0,36.9,29.90,South,183,2.2,2.9,70,0.00,,,0.00,WUHU21623XXSP,2013-02-15 23:58:00,
2013-02-15 19:05:00,46.0,36.9,29.91,SSE,161,1.1,2.5,70,0.00,,,0.00,WUHU21623XXSP,2013-02-16 00:05:00,
2013-02-15 19:11:00,46.0,36.9,29.90,SSW,206,0.0,1.6,70,0.00,,,0.00,WUHU21623XXSP,2013-02-16 00:11:00,
2013-02-15 19:18:00,46.2,37.0,29.90,South,183,0.0,2.2,70,0.00,,,0.00,WUHU21623XXSP,2013-02-16 00:18:00,
2013-02-15 19:24:00,46.2,37.0,29.90,SSE,161,1.6,2.5,70,0.00,,,0.00,WUHU21623XXSP,2013-02-16 00:24:00,
2013-02-15 19:31:00,46.2,37.0,29.90,South,183,1.8,2.5,70,0.00,,,0.00,WUHU21623XXSP,2013-02-16 00:31:00,
2013-02-15 19:37:00,46.0,37.0,29.90,South,183,4.0,8.1,70,0.00,,,0.00,WUHU21623XXSP,2013-02-16 00:37:00,
2013-02-15 19:44:00,46.0,36.9,29.90,SSE,161,2.7,8.1,70,0.00,,,0.00,WUHU21623XXSP,2013-02-16 00:44:00,
2013-02-15 19:50:00,45.7,36.9,29.90,South,183,1.3,6.7,70,0.00,,,0.00,WUHU21623XXSP,2013-02-16 00:50:00,
2013-02-15 19:57:00,45.7,36.8,29.90,South,183,2.8,6.5,71,0.00,,,0.00,WUHU21623XXSP,2013-02-16 00:57:00,
2013-02-15 20:03:00,45.7,36.8,29.90,SSW,206,0.9,3.6,71,0.00,,,0.00,WUHU21623XXSP,2013-02-16 01:03:00,
2013-02-15 20:09:00,45.7,36.8,29.89,SSE,161,2.0,2.5,71,0.00,,,0.00,WUHU21623XXSP,2013-02-16 01:09:00,
2013-02-15 20:16:00,45.7,36.8,29.89,SSE,161,1.1,2.0,71,0.00,,,0.00,WUHU21623XXSP,2013-02-16 01:16:00,
2013-02-15 20:21:00,45.7,36.8,29.90,South,183,0.0,1.6,71,0.00,,,0.00,WUHU21623XXSP,2013-02-16 01:21:00,
2013-02-15 20:27:00,45.9,37.0,29.90,NNW,341,0.9,0.9,71,0.00,,,0.00,WUHU21623XXSP,2013-02-16 01:27:00,
2013-02-15 20:33:00,46.0,37.2,29.90,West,273,0.0,0.9,71,0.00,,,0.00,WUHU21623XXSP,2013-02-16 01:33:00,
2013-02-15 20:40:00,46.0,37.2,29.90,WSW,251,1.3,1.3,71,0.00,,,0.00,WUHU21623XXSP,2013-02-16 01:40:00,
2013-02-15 20:46:00,46.0,37.2,29.90,WSW,251,0.0,1.3,71,0.00,,,0.00,WUHU21623XXSP,2013-02-16 01:46:00,
2013-02-15 20:52:00,46.0,37.2,29.90,SW,228,0.9,0.9,71,0.00,,,0.00,WUHU21623XXSP,2013-02-16 01:52:00,
2013-02-15 20:59:00,46.0,37.2,29.91,SW,228,0.7,0.9,71,0.00,,,0.00,WUHU21623XXSP,2013-02-16 01:59:00,
2013-02-15 21:05:00,46.0,37.2,29.91,WSW,251,0.0,0.7,71,0.00,,,0.00,WUHU21623XXSP,2013-02-16 02:05:00,
2013-02-15 21:12:00,46.0,37.2,29.90,WSW,251,0.0,0.7,71,0.00,,,0.00,WUHU21623XXSP,2013-02-16 02:12:00,
2013-02-15 21:18:00,46.0,37.2,29.90,South,183,2.2,2.2,71,0.00,,,0.00,WUHU21623XXSP,2013-02-16 02:18:00,
2013-02-15 21:25:00,46.0,37.2,29.90,SSW,206,1.1,2.2,71,0.00,,,0.00,WUHU21623XXSP,2013-02-16 02:25:00,
2013-02-15 21:31:00,46.0,37.2,29.91,WSW,251,0.9,1.8,71,0.00,,,0.00,WUHU21623XXSP,2013-02-16 02:31:00,
2013-02-15 21:38:00,46.0,37.2,29.90,WSW,251,0.0,0.9,71,0.00,,,0.00,WUHU21623XXSP,2013-02-16 02:38:00,
2013-02-15 21:44:00,46.2,37.4,29.90,WSW,251,0.0,0.7,71,0.00,,,0.00,WUHU21623XXSP,2013-02-16 02:44:00,
2013-02-15 21:51:00,46.2,37.4,29.90,WSW,251,0.0,0.7,71,0.00,,,0.00,WUHU21623XXSP,2013-02-16 02:51:00,
2013-02-15 21:57:00,46.2,37.4,29.89,West,273,0.0,0.9,71,0.00,,,0.00,WUHU21623XXSP,2013-02-16 02:57:00,
2013-02-15 22:03:00,46.2,37.4,29.90,SW,228,2.2,2.2,71,0.00,,,0.00,WUHU21623XXSP,2013-02-16 03:03:00,
2013-02-15 22:10:00,46.2,37.4,29.90,SW,218,4.0,5.8,71,0.00,,,0.00,WUHU21623XXSP,2013-02-16 03:10:00,
2013-02-15 22:16:00,46.2,37.4,29.91,NW,318,2.5,5.8,71,0.00,,,0.00,WUHU21623XXSP,2013-02-16 03:16:00,
2013-02-15 22:23:00,46.2,37.4,29.90,WSW,251,0.0,2.5,71,0.00,,,0.00,WUHU21623XXSP,2013-02-16 03:23:00,
2013-02-15 22:30:00,46.2,37.4,29.91,SW,228,1.6,1.8,71,0.00,,,0.00,WUHU21623XXSP,2013-02-16 03:30:00,
2013-02-15 22:35:00,46.2,37.4,29.91,West,273,0.7,1.6,71,0.00,,,0.00,WUHU21623XXSP,2013-02-16 03:35:00,
2013-02-15 22:42:00,46.6,38.1,29.91,West,273,0.9,0.9,72,0.00,,,0.00,WUHU21623XXSP,2013-02-16 03:42:00,
2013-02-15 22:48:00,46.6,37.9,29.92,West,273,0.7,0.9,72,0.00,,,0.00,WUHU21623XXSP,2013-02-16 03:48:00,
2013-02-15 22:55:00,46.6,38.1,29.91,West,273,0.9,0.9,72,0.00,,,0.00,WUHU21623XXSP,2013-02-16 03:55:00,
2013-02-15 23:01:00,46.6,38.1,29.91,WNW,296,0.7,0.9,72,0.00,,,0.00,WUHU21623XXSP,2013-02-16 04:01:00,
2013-02-15 23:08:00,46.6,38.1,29.92,NW,318,1.6,1.6,72,0.00,,,0.00,WUHU21623XXSP,2013-02-16 04:08:00,
2013-02-15 23:14:00,46.6,38.1,29.91,NNW,341,3.1,3.1,72,0.00,,,0.00,WUHU21623XXSP,2013-02-16 04:14:00,
2013-02-15 23:20:00,46.2,37.4,29.91,WNW,296,2.2,3.1,72,0.00,,,0.00,WUHU21623XXSP,2013-02-16 04:20:00,
2013-02-15 23:27:00,46.2,37.7,29.91,NNW,341,1.8,2.5,72,0.00,,,0.00,WUHU21623XXSP,2013-02-16 04:27:00,
2013-02-15 23:33:00,46.2,37.4,29.91,NW,318,1.8,2.5,71,0.00,,,0.00,WUHU21623XXSP,2013-02-16 04:33:00,
2013-02-15 23:40:00,46.2,37.4,29.91,NNW,341,2.7,2.7,71,0.00,,,0.00,WUHU21623XXSP,2013-02-16 04:40:00,
2013-02-15 23:46:00,46.2,37.4,29.90,North,3,1.8,2.9,71,0.00,,,0.00,WUHU21623XXSP,2013-02-16 04:46:00,
2013-02-15 23:53:00,46.0,36.9,29.90,NNW,341,1.6,2.9,70,0.00,,,0.00,WUHU21623XXSP,2013-02-16 04:53:00,
2013-02-15 23:59:00,46.0,36.9,29.91,NNW,341,3.1,3.1,70,0.00,,,0.00,WUHU21623XXSP,2013-02-16 04:59:00,